MO67 weather

Hayes Field
Poplar Bluff, Missouri, United States

Public forecast

Using degrees Fahrenheit for public forecast. Weather courtesy of forecast.io.

METAR (pilot weather report)

Closest report is Poplar Bluff Municipal Airport, 3.8 nm (7.0 km) N. Retrieved 2019/09/18 17:53 UTC (47 minutes ago):

KPOF 181753Z AUTO 31004KT 10SM CLR 33/20 A3003 RMK AO2 SLP163 T03280200 10328 20206 58002

TAF (pilot weather forecast)

Closest forecast is Cape Girardeau Regional Airport, 47.2 nm (87.3 km) NE. Retrieved 2019/09/18 18:24 UTC (16 minutes ago):

TAF KCGI 181721Z 1818/1918 05004KT P6SM FEW045 FM190000 00000KT P6SM SKC FM190800 00000KT 4SM BR BCFG SKC FM191300 16003KT P6SM SCT250